sensor_id;sensor_type;location;lat;lon;timestamp;P1;durP1;ratioP1;P2;durP2;ratioP2
8488;SDS011;4281;45.772;12.852;2024-01-30T00:00:02;35.63;;;30.47;;
8488;SDS011;4281;45.772;12.852;2024-01-30T00:02:31;36.10;;;30.77;;
8488;SDS011;4281;45.772;12.852;2024-01-30T00:04:59;40.67;;;30.90;;
8488;SDS011;4281;45.772;12.852;2024-01-30T00:07:27;35.07;;;28.90;;
8488;SDS011;4281;45.772;12.852;2024-01-30T00:09:55;36.20;;;30.37;;
8488;SDS011;4281;45.772;12.852;2024-01-30T00:12:25;36.03;;;30.60;;
8488;SDS011;4281;45.772;12.852;2024-01-30T00:14:53;34.40;;;30.70;;
8488;SDS011;4281;45.772;12.852;2024-01-30T00:17:21;34.63;;;29.70;;
8488;SDS011;4281;45.772;12.852;2024-01-30T00:19:51;35.40;;;30.43;;
8488;SDS011;4281;45.772;12.852;2024-01-30T00:22:19;32.27;;;27.83;;
8488;SDS011;4281;45.772;12.852;2024-01-30T00:24:47;39.43;;;31.93;;
8488;SDS011;4281;45.772;12.852;2024-01-30T00:27:16;36.27;;;30.90;;
8488;SDS011;4281;45.772;12.852;2024-01-30T00:29:45;34.03;;;28.87;;
8488;SDS011;4281;45.772;12.852;2024-01-30T00:32:13;35.87;;;30.40;;
8488;SDS011;4281;45.772;12.852;2024-01-30T00:34:41;36.47;;;28.93;;
8488;SDS011;4281;45.772;12.852;2024-01-30T00:37:09;33.47;;;28.83;;
8488;SDS011;4281;45.772;12.852;2024-01-30T00:39:38;37.70;;;31.33;;
8488;SDS011;4281;45.772;12.852;2024-01-30T00:42:06;37.23;;;30.33;;
8488;SDS011;4281;45.772;12.852;2024-01-30T00:44:34;36.00;;;29.30;;
8488;SDS011;4281;45.772;12.852;2024-01-30T00:47:05;34.93;;;30.57;;
8488;SDS011;4281;45.772;12.852;2024-01-30T00:49:33;33.57;;;29.07;;
8488;SDS011;4281;45.772;12.852;2024-01-30T00:52:01;33.73;;;28.83;;
8488;SDS011;4281;45.772;12.852;2024-01-30T00:54:29;36.37;;;30.50;;
8488;SDS011;4281;45.772;12.852;2024-01-30T00:56:57;38.83;;;31.53;;
8488;SDS011;4281;45.772;12.852;2024-01-30T00:59:25;34.87;;;29.93;;
8488;SDS011;4281;45.772;12.852;2024-01-30T01:01:53;34.13;;;29.57;;
8488;SDS011;4281;45.772;12.852;2024-01-30T01:04:23;32.93;;;29.33;;
8488;SDS011;4281;45.772;12.852;2024-01-30T01:06:51;32.83;;;27.20;;
8488;SDS011;4281;45.772;12.852;2024-01-30T01:09:20;32.30;;;27.80;;
8488;SDS011;4281;45.772;12.852;2024-01-30T01:11:48;34.60;;;29.53;;
8488;SDS011;4281;45.772;12.852;2024-01-30T01:14:16;33.57;;;28.47;;
8488;SDS011;4281;45.772;12.852;2024-01-30T01:16:44;33.33;;;27.83;;
8488;SDS011;4281;45.772;12.852;2024-01-30T01:19:12;34.57;;;28.73;;
8488;SDS011;4281;45.772;12.852;2024-01-30T01:21:41;30.60;;;27.00;;
8488;SDS011;4281;45.772;12.852;2024-01-30T01:24:10;29.57;;;26.37;;
8488;SDS011;4281;45.772;12.852;2024-01-30T01:26:38;29.77;;;25.80;;
8488;SDS011;4281;45.772;12.852;2024-01-30T01:29:06;28.67;;;24.90;;
8488;SDS011;4281;45.772;12.852;2024-01-30T01:31:36;28.87;;;25.23;;
8488;SDS011;4281;45.772;12.852;2024-01-30T01:34:10;29.23;;;25.13;;
8488;SDS011;4281;45.772;12.852;2024-01-30T01:36:38;29.43;;;23.67;;
8488;SDS011;4281;45.772;12.852;2024-01-30T01:39:08;27.10;;;23.07;;
8488;SDS011;4281;45.772;12.852;2024-01-30T01:41:37;28.43;;;23.57;;
8488;SDS011;4281;45.772;12.852;2024-01-30T01:44:05;29.00;;;24.60;;
8488;SDS011;4281;45.772;12.852;2024-01-30T01:46:33;26.53;;;23.63;;
8488;SDS011;4281;45.772;12.852;2024-01-30T01:49:02;26.73;;;23.00;;
8488;SDS011;4281;45.772;12.852;2024-01-30T01:51:30;26.53;;;22.90;;
8488;SDS011;4281;45.772;12.852;2024-01-30T01:53:59;27.80;;;24.20;;
8488;SDS011;4281;45.772;12.852;2024-01-30T01:56:31;27.47;;;24.27;;
8488;SDS011;4281;45.772;12.852;2024-01-30T01:58:59;26.67;;;22.13;;
8488;SDS011;4281;45.772;12.852;2024-01-30T02:01:28;28.07;;;23.00;;
8488;SDS011;4281;45.772;12.852;2024-01-30T02:03:56;26.23;;;23.00;;
8488;SDS011;4281;45.772;12.852;2024-01-30T02:06:24;25.97;;;22.83;;
8488;SDS011;4281;45.772;12.852;2024-01-30T02:08:53;25.47;;;22.60;;
8488;SDS011;4281;45.772;12.852;2024-01-30T02:11:21;25.37;;;22.33;;
8488;SDS011;4281;45.772;12.852;2024-01-30T02:13:52;28.07;;;23.43;;
8488;SDS011;4281;45.772;12.852;2024-01-30T02:16:20;27.40;;;24.10;;
8488;SDS011;4281;45.772;12.852;2024-01-30T02:18:48;25.73;;;22.03;;
8488;SDS011;4281;45.772;12.852;2024-01-30T02:21:17;26.87;;;23.87;;
8488;SDS011;4281;45.772;12.852;2024-01-30T02:23:46;28.53;;;23.87;;
8488;SDS011;4281;45.772;12.852;2024-01-30T02:26:14;27.53;;;24.10;;
8488;SDS011;4281;45.772;12.852;2024-01-30T02:28:42;25.67;;;22.43;;
8488;SDS011;4281;45.772;12.852;2024-01-30T02:31:10;26.70;;;21.67;;
8488;SDS011;4281;45.772;12.852;2024-01-30T02:33:38;26.33;;;22.40;;
8488;SDS011;4281;45.772;12.852;2024-01-30T02:36:06;25.10;;;22.30;;
8488;SDS011;4281;45.772;12.852;2024-01-30T02:38:36;25.03;;;22.13;;
8488;SDS011;4281;45.772;12.852;2024-01-30T02:41:04;27.30;;;22.90;;
8488;SDS011;4281;45.772;12.852;2024-01-30T02:43:32;25.00;;;21.40;;
8488;SDS011;4281;45.772;12.852;2024-01-30T02:46:00;25.03;;;21.27;;
8488;SDS011;4281;45.772;12.852;2024-01-30T02:48:28;24.83;;;22.23;;
8488;SDS011;4281;45.772;12.852;2024-01-30T02:50:56;26.40;;;21.80;;
8488;SDS011;4281;45.772;12.852;2024-01-30T02:53:24;22.77;;;19.90;;
8488;SDS011;4281;45.772;12.852;2024-01-30T02:55:53;24.03;;;21.43;;
8488;SDS011;4281;45.772;12.852;2024-01-30T02:58:21;25.10;;;20.57;;
8488;SDS011;4281;45.772;12.852;2024-01-30T03:00:49;22.80;;;19.13;;
8488;SDS011;4281;45.772;12.852;2024-01-30T03:03:17;21.17;;;18.50;;
8488;SDS011;4281;45.772;12.852;2024-01-30T03:05:45;24.43;;;19.80;;
8488;SDS011;4281;45.772;12.852;2024-01-30T03:08:13;23.10;;;18.13;;
8488;SDS011;4281;45.772;12.852;2024-01-30T03:10:41;18.97;;;16.87;;
8488;SDS011;4281;45.772;12.852;2024-01-30T03:13:11;19.90;;;16.80;;
8488;SDS011;4281;45.772;12.852;2024-01-30T03:15:39;17.47;;;15.33;;
8488;SDS011;4281;45.772;12.852;2024-01-30T03:18:07;18.00;;;15.53;;
8488;SDS011;4281;45.772;12.852;2024-01-30T03:20:35;17.33;;;15.00;;
8488;SDS011;4281;45.772;12.852;2024-01-30T03:23:03;17.63;;;14.90;;
8488;SDS011;4281;45.772;12.852;2024-01-30T03:25:32;16.67;;;14.90;;
8488;SDS011;4281;45.772;12.852;2024-01-30T03:28:00;15.93;;;13.57;;
8488;SDS011;4281;45.772;12.852;2024-01-30T03:30:29;17.43;;;14.73;;
8488;SDS011;4281;45.772;12.852;2024-01-30T03:32:58;16.90;;;13.80;;
8488;SDS011;4281;45.772;12.852;2024-01-30T03:35:26;14.67;;;13.13;;
8488;SDS011;4281;45.772;12.852;2024-01-30T03:37:54;16.43;;;13.73;;
8488;SDS011;4281;45.772;12.852;2024-01-30T03:40:22;14.97;;;12.90;;
8488;SDS011;4281;45.772;12.852;2024-01-30T03:42:50;15.03;;;13.43;;
8488;SDS011;4281;45.772;12.852;2024-01-30T03:45:18;15.20;;;12.63;;
8488;SDS011;4281;45.772;12.852;2024-01-30T03:47:48;16.50;;;13.40;;
8488;SDS011;4281;45.772;12.852;2024-01-30T03:50:16;13.57;;;11.47;;
8488;SDS011;4281;45.772;12.852;2024-01-30T03:52:44;14.10;;;12.30;;
8488;SDS011;4281;45.772;12.852;2024-01-30T03:55:12;14.63;;;12.73;;
8488;SDS011;4281;45.772;12.852;2024-01-30T03:57:40;13.93;;;12.30;;
8488;SDS011;4281;45.772;12.852;2024-01-30T04:00:08;12.37;;;11.07;;
8488;SDS011;4281;45.772;12.852;2024-01-30T04:02:37;13.80;;;11.13;;
8488;SDS011;4281;45.772;12.852;2024-01-30T04:05:07;12.70;;;11.23;;
8488;SDS011;4281;45.772;12.852;2024-01-30T04:07:35;11.30;;;9.97;;
8488;SDS011;4281;45.772;12.852;2024-01-30T04:10:03;12.30;;;10.30;;
8488;SDS011;4281;45.772;12.852;2024-01-30T04:12:32;11.07;;;9.87;;
8488;SDS011;4281;45.772;12.852;2024-01-30T04:15:01;11.67;;;10.13;;
8488;SDS011;4281;45.772;12.852;2024-01-30T04:17:28;11.87;;;9.73;;
8488;SDS011;4281;45.772;12.852;2024-01-30T04:19:57;11.20;;;10.00;;
8488;SDS011;4281;45.772;12.852;2024-01-30T04:22:26;10.97;;;9.87;;
8488;SDS011;4281;45.772;12.852;2024-01-30T04:24:54;10.37;;;8.77;;
8488;SDS011;4281;45.772;12.852;2024-01-30T04:27:22;12.93;;;9.67;;
8488;SDS011;4281;45.772;12.852;2024-01-30T04:29:50;9.33;;;8.37;;
8488;SDS011;4281;45.772;12.852;2024-01-30T04:32:18;10.27;;;8.57;;
8488;SDS011;4281;45.772;12.852;2024-01-30T04:34:46;9.73;;;8.17;;
8488;SDS011;4281;45.772;12.852;2024-01-30T04:37:14;9.43;;;8.17;;
8488;SDS011;4281;45.772;12.852;2024-01-30T04:39:44;9.20;;;8.17;;
8488;SDS011;4281;45.772;12.852;2024-01-30T04:42:12;9.10;;;8.20;;
8488;SDS011;4281;45.772;12.852;2024-01-30T04:44:40;9.20;;;8.10;;
8488;SDS011;4281;45.772;12.852;2024-01-30T04:47:08;9.10;;;8.20;;
8488;SDS011;4281;45.772;12.852;2024-01-30T04:49:38;9.33;;;8.20;;
8488;SDS011;4281;45.772;12.852;2024-01-30T04:52:07;9.10;;;8.20;;
8488;SDS011;4281;45.772;12.852;2024-01-30T04:54:35;8.77;;;7.70;;
8488;SDS011;4281;45.772;12.852;2024-01-30T04:57:05;9.20;;;8.30;;
8488;SDS011;4281;45.772;12.852;2024-01-30T04:59:35;9.70;;;8.53;;
8488;SDS011;4281;45.772;12.852;2024-01-30T05:02:04;9.83;;;8.77;;
8488;SDS011;4281;45.772;12.852;2024-01-30T05:04:32;10.53;;;8.10;;
8488;SDS011;4281;45.772;12.852;2024-01-30T05:07:00;8.60;;;7.70;;
8488;SDS011;4281;45.772;12.852;2024-01-30T05:09:28;8.50;;;7.47;;
8488;SDS011;4281;45.772;12.852;2024-01-30T05:11:56;8.87;;;7.63;;
8488;SDS011;4281;45.772;12.852;2024-01-30T05:14:26;9.13;;;7.83;;
8488;SDS011;4281;45.772;12.852;2024-01-30T05:16:53;8.90;;;8.00;;
8488;SDS011;4281;45.772;12.852;2024-01-30T05:19:21;9.43;;;8.10;;
8488;SDS011;4281;45.772;12.852;2024-01-30T05:21:50;8.70;;;7.70;;
8488;SDS011;4281;45.772;12.852;2024-01-30T05:24:18;8.97;;;8.07;;
8488;SDS011;4281;45.772;12.852;2024-01-30T05:26:47;10.50;;;8.07;;
8488;SDS011;4281;45.772;12.852;2024-01-30T05:29:17;8.70;;;7.60;;
8488;SDS011;4281;45.772;12.852;2024-01-30T05:31:47;9.80;;;8.63;;
8488;SDS011;4281;45.772;12.852;2024-01-30T05:34:15;10.10;;;8.10;;
8488;SDS011;4281;45.772;12.852;2024-01-30T05:36:43;9.80;;;8.80;;
8488;SDS011;4281;45.772;12.852;2024-01-30T05:39:11;9.13;;;8.23;;
8488;SDS011;4281;45.772;12.852;2024-01-30T05:41:39;9.57;;;7.87;;
8488;SDS011;4281;45.772;12.852;2024-01-30T05:44:07;10.03;;;7.80;;
8488;SDS011;4281;45.772;12.852;2024-01-30T05:46:35;9.00;;;7.87;;
8488;SDS011;4281;45.772;12.852;2024-01-30T05:49:05;8.97;;;6.90;;
8488;SDS011;4281;45.772;12.852;2024-01-30T05:51:33;8.73;;;7.43;;
8488;SDS011;4281;45.772;12.852;2024-01-30T05:54:01;8.67;;;7.60;;
8488;SDS011;4281;45.772;12.852;2024-01-30T05:56:30;10.20;;;8.10;;
8488;SDS011;4281;45.772;12.852;2024-01-30T05:58:58;8.43;;;7.57;;
8488;SDS011;4281;45.772;12.852;2024-01-30T06:01:26;9.97;;;8.07;;
8488;SDS011;4281;45.772;12.852;2024-01-30T06:03:55;8.90;;;8.00;;
8488;SDS011;4281;45.772;12.852;2024-01-30T06:06:25;8.63;;;7.70;;
8488;SDS011;4281;45.772;12.852;2024-01-30T06:08:53;10.60;;;8.40;;
8488;SDS011;4281;45.772;12.852;2024-01-30T06:11:22;8.07;;;6.87;;
8488;SDS011;4281;45.772;12.852;2024-01-30T06:13:50;9.27;;;8.23;;
8488;SDS011;4281;45.772;12.852;2024-01-30T06:16:18;9.30;;;7.47;;
8488;SDS011;4281;45.772;12.852;2024-01-30T06:18:47;10.63;;;8.50;;
8488;SDS011;4281;45.772;12.852;2024-01-30T06:21:15;8.83;;;7.97;;
8488;SDS011;4281;45.772;12.852;2024-01-30T06:23:45;8.80;;;7.73;;
8488;SDS011;4281;45.772;12.852;2024-01-30T06:26:13;9.10;;;7.70;;
8488;SDS011;4281;45.772;12.852;2024-01-30T06:28:41;7.80;;;7.00;;
8488;SDS011;4281;45.772;12.852;2024-01-30T06:31:09;8.53;;;7.57;;
8488;SDS011;4281;45.772;12.852;2024-01-30T06:33:37;8.53;;;7.60;;
8488;SDS011;4281;45.772;12.852;2024-01-30T06:36:05;9.73;;;8.10;;
8488;SDS011;4281;45.772;12.852;2024-01-30T06:38:33;10.20;;;8.57;;
8488;SDS011;4281;45.772;12.852;2024-01-30T06:41:03;9.97;;;8.63;;
8488;SDS011;4281;45.772;12.852;2024-01-30T06:43:31;10.73;;;8.60;;
8488;SDS011;4281;45.772;12.852;2024-01-30T06:45:59;8.80;;;7.70;;
8488;SDS011;4281;45.772;12.852;2024-01-30T06:48:27;10.03;;;8.27;;
8488;SDS011;4281;45.772;12.852;2024-01-30T06:50:57;8.90;;;7.77;;
8488;SDS011;4281;45.772;12.852;2024-01-30T06:53:25;10.43;;;9.33;;
8488;SDS011;4281;45.772;12.852;2024-01-30T06:55:53;11.47;;;9.70;;
8488;SDS011;4281;45.772;12.852;2024-01-30T06:58:22;11.10;;;9.93;;
8488;SDS011;4281;45.772;12.852;2024-01-30T07:00:51;12.47;;;10.93;;
8488;SDS011;4281;45.772;12.852;2024-01-30T07:03:19;13.23;;;11.00;;
8488;SDS011;4281;45.772;12.852;2024-01-30T07:05:48;12.70;;;11.33;;
8488;SDS011;4281;45.772;12.852;2024-01-30T07:08:16;13.47;;;11.70;;
8488;SDS011;4281;45.772;12.852;2024-01-30T07:10:44;11.63;;;10.07;;
8488;SDS011;4281;45.772;12.852;2024-01-30T07:13:12;13.87;;;10.10;;
8488;SDS011;4281;45.772;12.852;2024-01-30T07:15:44;13.27;;;10.37;;
8488;SDS011;4281;45.772;12.852;2024-01-30T07:18:12;11.47;;;10.30;;
8488;SDS011;4281;45.772;12.852;2024-01-30T07:20:41;11.90;;;10.33;;
8488;SDS011;4281;45.772;12.852;2024-01-30T07:23:12;11.97;;;9.63;;
8488;SDS011;4281;45.772;12.852;2024-01-30T07:25:43;11.40;;;8.77;;
8488;SDS011;4281;45.772;12.852;2024-01-30T07:28:14;10.87;;;8.80;;
8488;SDS011;4281;45.772;12.852;2024-01-30T07:30:44;11.10;;;8.70;;
8488;SDS011;4281;45.772;12.852;2024-01-30T07:33:14;11.70;;;8.97;;
8488;SDS011;4281;45.772;12.852;2024-01-30T07:35:42;10.90;;;8.77;;
8488;SDS011;4281;45.772;12.852;2024-01-30T07:38:10;9.57;;;8.50;;
8488;SDS011;4281;45.772;12.852;2024-01-30T07:40:38;9.90;;;8.50;;
8488;SDS011;4281;45.772;12.852;2024-01-30T07:43:06;11.03;;;9.00;;
8488;SDS011;4281;45.772;12.852;2024-01-30T07:45:34;9.70;;;8.60;;
8488;SDS011;4281;45.772;12.852;2024-01-30T07:48:06;10.60;;;7.93;;
8488;SDS011;4281;45.772;12.852;2024-01-30T07:50:34;10.77;;;8.13;;
8488;SDS011;4281;45.772;12.852;2024-01-30T07:53:02;10.17;;;9.07;;
8488;SDS011;4281;45.772;12.852;2024-01-30T07:55:30;10.57;;;8.10;;
8488;SDS011;4281;45.772;12.852;2024-01-30T07:57:59;8.83;;;7.90;;
8488;SDS011;4281;45.772;12.852;2024-01-30T08:00:27;9.03;;;7.83;;
8488;SDS011;4281;45.772;12.852;2024-01-30T08:02:56;8.57;;;7.67;;
8488;SDS011;4281;45.772;12.852;2024-01-30T08:05:26;9.97;;;8.57;;
8488;SDS011;4281;45.772;12.852;2024-01-30T08:07:55;10.47;;;8.33;;
8488;SDS011;4281;45.772;12.852;2024-01-30T08:10:23;7.83;;;7.00;;
8488;SDS011;4281;45.772;12.852;2024-01-30T08:12:51;9.03;;;7.70;;
8488;SDS011;4281;45.772;12.852;2024-01-30T08:15:19;9.27;;;7.33;;
8488;SDS011;4281;45.772;12.852;2024-01-30T08:17:47;8.73;;;6.70;;
8488;SDS011;4281;45.772;12.852;2024-01-30T08:20:15;9.63;;;7.03;;
8488;SDS011;4281;45.772;12.852;2024-01-30T08:22:44;8.97;;;7.07;;
8488;SDS011;4281;45.772;12.852;2024-01-30T08:25:12;8.17;;;6.70;;
8488;SDS011;4281;45.772;12.852;2024-01-30T08:27:41;9.43;;;7.30;;
8488;SDS011;4281;45.772;12.852;2024-01-30T08:30:09;8.37;;;7.47;;
8488;SDS011;4281;45.772;12.852;2024-01-30T08:32:37;7.60;;;6.80;;
8488;SDS011;4281;45.772;12.852;2024-01-30T08:35:06;8.43;;;7.00;;
8488;SDS011;4281;45.772;12.852;2024-01-30T08:37:35;7.67;;;6.87;;
8488;SDS011;4281;45.772;12.852;2024-01-30T08:40:05;6.97;;;5.87;;
8488;SDS011;4281;45.772;12.852;2024-01-30T08:42:35;6.93;;;5.93;;
8488;SDS011;4281;45.772;12.852;2024-01-30T08:45:03;7.00;;;6.30;;
8488;SDS011;4281;45.772;12.852;2024-01-30T08:47:32;6.67;;;5.83;;
8488;SDS011;4281;45.772;12.852;2024-01-30T08:50:00;6.50;;;5.67;;
8488;SDS011;4281;45.772;12.852;2024-01-30T08:52:29;7.17;;;5.10;;
8488;SDS011;4281;45.772;12.852;2024-01-30T08:54:57;8.07;;;6.20;;
8488;SDS011;4281;45.772;12.852;2024-01-30T08:57:26;8.00;;;5.67;;
8488;SDS011;4281;45.772;12.852;2024-01-30T08:59:55;8.17;;;5.73;;
8488;SDS011;4281;45.772;12.852;2024-01-30T09:02:23;9.73;;;6.13;;
8488;SDS011;4281;45.772;12.852;2024-01-30T09:04:52;8.97;;;5.80;;
8488;SDS011;4281;45.772;12.852;2024-01-30T09:07:20;7.30;;;6.00;;
8488;SDS011;4281;45.772;12.852;2024-01-30T09:09:48;6.43;;;5.40;;
8488;SDS011;4281;45.772;12.852;2024-01-30T09:12:16;7.63;;;5.10;;
8488;SDS011;4281;45.772;12.852;2024-01-30T09:14:45;6.60;;;5.13;;
8488;SDS011;4281;45.772;12.852;2024-01-30T09:17:13;6.87;;;5.20;;
8488;SDS011;4281;45.772;12.852;2024-01-30T09:19:41;6.13;;;4.70;;
8488;SDS011;4281;45.772;12.852;2024-01-30T09:22:09;6.00;;;4.40;;
8488;SDS011;4281;45.772;12.852;2024-01-30T09:24:37;6.00;;;5.10;;
8488;SDS011;4281;45.772;12.852;2024-01-30T09:27:05;6.43;;;4.87;;
8488;SDS011;4281;45.772;12.852;2024-01-30T09:29:34;5.40;;;4.40;;
8488;SDS011;4281;45.772;12.852;2024-01-30T09:32:05;6.43;;;4.63;;
8488;SDS011;4281;45.772;12.852;2024-01-30T09:34:35;5.67;;;5.03;;
8488;SDS011;4281;45.772;12.852;2024-01-30T09:37:03;5.70;;;5.00;;
8488;SDS011;4281;45.772;12.852;2024-01-30T09:39:31;6.27;;;5.60;;
8488;SDS011;4281;45.772;12.852;2024-01-30T09:42:01;6.50;;;5.80;;
8488;SDS011;4281;45.772;12.852;2024-01-30T09:44:30;7.13;;;5.20;;
8488;SDS011;4281;45.772;12.852;2024-01-30T09:46:58;7.67;;;6.03;;
8488;SDS011;4281;45.772;12.852;2024-01-30T09:49:31;7.30;;;5.33;;
8488;SDS011;4281;45.772;12.852;2024-01-30T09:52:00;8.13;;;5.93;;
8488;SDS011;4281;45.772;12.852;2024-01-30T09:54:28;8.47;;;6.17;;
8488;SDS011;4281;45.772;12.852;2024-01-30T09:57:02;7.57;;;6.57;;
8488;SDS011;4281;45.772;12.852;2024-01-30T09:59:30;8.60;;;6.37;;
8488;SDS011;4281;45.772;12.852;2024-01-30T10:01:58;6.87;;;5.83;;
8488;SDS011;4281;45.772;12.852;2024-01-30T10:04:26;7.77;;;6.10;;
8488;SDS011;4281;45.772;12.852;2024-01-30T10:06:55;6.43;;;5.50;;
8488;SDS011;4281;45.772;12.852;2024-01-30T10:09:25;7.10;;;5.60;;
8488;SDS011;4281;45.772;12.852;2024-01-30T10:11:53;7.40;;;5.77;;
8488;SDS011;4281;45.772;12.852;2024-01-30T10:14:21;8.13;;;5.60;;
8488;SDS011;4281;45.772;12.852;2024-01-30T10:16:49;7.53;;;5.50;;
8488;SDS011;4281;45.772;12.852;2024-01-30T10:19:17;8.00;;;6.43;;
8488;SDS011;4281;45.772;12.852;2024-01-30T10:21:46;7.13;;;6.17;;
8488;SDS011;4281;45.772;12.852;2024-01-30T10:24:16;8.13;;;6.63;;
8488;SDS011;4281;45.772;12.852;2024-01-30T10:26:44;10.63;;;7.23;;
8488;SDS011;4281;45.772;12.852;2024-01-30T10:29:12;7.83;;;7.03;;
8488;SDS011;4281;45.772;12.852;2024-01-30T10:31:40;9.07;;;6.60;;
8488;SDS011;4281;45.772;12.852;2024-01-30T10:34:08;6.60;;;5.80;;
8488;SDS011;4281;45.772;12.852;2024-01-30T10:36:48;8.33;;;6.20;;
8488;SDS011;4281;45.772;12.852;2024-01-30T10:39:19;7.00;;;6.30;;
8488;SDS011;4281;45.772;12.852;2024-01-30T10:41:48;6.47;;;5.63;;
8488;SDS011;4281;45.772;12.852;2024-01-30T10:44:19;7.70;;;5.70;;
8488;SDS011;4281;45.772;12.852;2024-01-30T10:46:50;5.83;;;5.23;;
8488;SDS011;4281;45.772;12.852;2024-01-30T10:49:21;5.93;;;5.30;;
8488;SDS011;4281;45.772;12.852;2024-01-30T10:51:51;6.67;;;5.43;;
8488;SDS011;4281;45.772;12.852;2024-01-30T10:54:21;6.23;;;5.47;;
8488;SDS011;4281;45.772;12.852;2024-01-30T10:56:51;6.20;;;4.93;;
8488;SDS011;4281;45.772;12.852;2024-01-30T10:59:20;6.47;;;5.30;;
8488;SDS011;4281;45.772;12.852;2024-01-30T11:01:49;5.87;;;4.40;;
8488;SDS011;4281;45.772;12.852;2024-01-30T11:04:18;8.33;;;4.83;;
8488;SDS011;4281;45.772;12.852;2024-01-30T11:06:48;5.10;;;4.57;;
8488;SDS011;4281;45.772;12.852;2024-01-30T11:09:17;5.70;;;5.10;;
8488;SDS011;4281;45.772;12.852;2024-01-30T11:11:51;6.20;;;5.47;;
8488;SDS011;4281;45.772;12.852;2024-01-30T11:14:23;7.13;;;5.90;;
8488;SDS011;4281;45.772;12.852;2024-01-30T11:16:52;5.80;;;5.07;;
8488;SDS011;4281;45.772;12.852;2024-01-30T11:19:23;7.53;;;5.37;;
8488;SDS011;4281;45.772;12.852;2024-01-30T11:21:52;6.27;;;5.30;;
8488;SDS011;4281;45.772;12.852;2024-01-30T11:24:23;5.67;;;4.87;;
8488;SDS011;4281;45.772;12.852;2024-01-30T11:26:56;5.80;;;5.20;;
8488;SDS011;4281;45.772;12.852;2024-01-30T11:29:25;6.77;;;5.03;;
8488;SDS011;4281;45.772;12.852;2024-01-30T11:31:55;5.90;;;5.10;;
8488;SDS011;4281;45.772;12.852;2024-01-30T11:34:24;7.87;;;5.50;;
8488;SDS011;4281;45.772;12.852;2024-01-30T11:36:55;6.50;;;5.40;;
8488;SDS011;4281;45.772;12.852;2024-01-30T11:39:26;6.67;;;5.70;;
8488;SDS011;4281;45.772;12.852;2024-01-30T11:41:54;5.67;;;5.10;;
8488;SDS011;4281;45.772;12.852;2024-01-30T11:44:24;6.33;;;5.40;;
8488;SDS011;4281;45.772;12.852;2024-01-30T11:46:52;7.43;;;5.20;;
8488;SDS011;4281;45.772;12.852;2024-01-30T11:49:20;5.77;;;5.17;;
8488;SDS011;4281;45.772;12.852;2024-01-30T11:51:48;5.83;;;4.50;;
8488;SDS011;4281;45.772;12.852;2024-01-30T11:54:17;5.53;;;4.90;;
8488;SDS011;4281;45.772;12.852;2024-01-30T11:56:45;6.20;;;5.60;;
8488;SDS011;4281;45.772;12.852;2024-01-30T11:59:13;5.87;;;5.17;;
8488;SDS011;4281;45.772;12.852;2024-01-30T12:01:43;6.07;;;5.47;;
8488;SDS011;4281;45.772;12.852;2024-01-30T12:04:11;5.30;;;4.80;;
8488;SDS011;4281;45.772;12.852;2024-01-30T12:06:39;5.77;;;5.17;;
8488;SDS011;4281;45.772;12.852;2024-01-30T12:09:08;6.37;;;5.43;;
8488;SDS011;4281;45.772;12.852;2024-01-30T12:11:44;5.53;;;4.77;;
8488;SDS011;4281;45.772;12.852;2024-01-30T12:14:12;5.80;;;5.03;;
8488;SDS011;4281;45.772;12.852;2024-01-30T12:16:42;5.87;;;4.87;;
8488;SDS011;4281;45.772;12.852;2024-01-30T12:19:10;7.20;;;5.33;;
8488;SDS011;4281;45.772;12.852;2024-01-30T12:21:38;6.13;;;5.30;;
8488;SDS011;4281;45.772;12.852;2024-01-30T12:24:06;5.23;;;4.73;;
8488;SDS011;4281;45.772;12.852;2024-01-30T12:26:34;5.47;;;4.83;;
8488;SDS011;4281;45.772;12.852;2024-01-30T12:29:03;4.97;;;4.47;;
8488;SDS011;4281;45.772;12.852;2024-01-30T12:31:32;5.27;;;4.77;;
8488;SDS011;4281;45.772;12.852;2024-01-30T12:34:02;5.40;;;4.90;;
8488;SDS011;4281;45.772;12.852;2024-01-30T12:36:30;5.50;;;4.67;;
8488;SDS011;4281;45.772;12.852;2024-01-30T12:38:58;4.87;;;4.37;;
8488;SDS011;4281;45.772;12.852;2024-01-30T12:41:27;4.80;;;4.40;;
8488;SDS011;4281;45.772;12.852;2024-01-30T12:43:57;5.70;;;4.23;;
8488;SDS011;4281;45.772;12.852;2024-01-30T12:46:27;6.47;;;4.80;;
8488;SDS011;4281;45.772;12.852;2024-01-30T12:48:56;4.63;;;4.20;;
8488;SDS011;4281;45.772;12.852;2024-01-30T12:51:25;5.30;;;4.17;;
8488;SDS011;4281;45.772;12.852;2024-01-30T12:53:53;5.17;;;4.10;;
8488;SDS011;4281;45.772;12.852;2024-01-30T12:56:21;5.00;;;3.93;;
8488;SDS011;4281;45.772;12.852;2024-01-30T12:58:49;6.40;;;4.67;;
8488;SDS011;4281;45.772;12.852;2024-01-30T13:01:20;9.87;;;7.33;;
8488;SDS011;4281;45.772;12.852;2024-01-30T13:03:49;9.03;;;7.30;;
8488;SDS011;4281;45.772;12.852;2024-01-30T13:06:17;9.33;;;6.97;;
8488;SDS011;4281;45.772;12.852;2024-01-30T13:08:46;7.43;;;6.27;;
8488;SDS011;4281;45.772;12.852;2024-01-30T13:11:14;6.33;;;5.73;;
8488;SDS011;4281;45.772;12.852;2024-01-30T13:13:47;6.67;;;5.87;;
8488;SDS011;4281;45.772;12.852;2024-01-30T13:16:15;6.13;;;5.53;;
8488;SDS011;4281;45.772;12.852;2024-01-30T13:18:43;6.70;;;5.40;;
8488;SDS011;4281;45.772;12.852;2024-01-30T13:21:11;6.77;;;5.67;;
8488;SDS011;4281;45.772;12.852;2024-01-30T13:23:39;5.17;;;4.63;;
8488;SDS011;4281;45.772;12.852;2024-01-30T13:26:09;7.27;;;6.00;;
8488;SDS011;4281;45.772;12.852;2024-01-30T13:28:37;5.87;;;5.00;;
8488;SDS011;4281;45.772;12.852;2024-01-30T13:31:05;6.10;;;5.50;;
8488;SDS011;4281;45.772;12.852;2024-01-30T13:33:34;5.73;;;5.20;;
8488;SDS011;4281;45.772;12.852;2024-01-30T13:36:02;7.40;;;5.40;;
8488;SDS011;4281;45.772;12.852;2024-01-30T13:38:30;5.53;;;5.03;;
8488;SDS011;4281;45.772;12.852;2024-01-30T13:40:59;5.80;;;5.30;;
8488;SDS011;4281;45.772;12.852;2024-01-30T13:43:29;5.37;;;4.87;;
8488;SDS011;4281;45.772;12.852;2024-01-30T13:45:57;7.10;;;5.67;;
8488;SDS011;4281;45.772;12.852;2024-01-30T13:48:25;7.23;;;6.53;;
8488;SDS011;4281;45.772;12.852;2024-01-30T13:50:53;9.07;;;8.20;;
8488;SDS011;4281;45.772;12.852;2024-01-30T13:53:22;12.27;;;11.20;;
8488;SDS011;4281;45.772;12.852;2024-01-30T13:55:49;12.50;;;11.40;;
8488;SDS011;4281;45.772;12.852;2024-01-30T13:58:18;10.90;;;9.90;;
8488;SDS011;4281;45.772;12.852;2024-01-30T14:00:47;9.30;;;8.40;;
8488;SDS011;4281;45.772;12.852;2024-01-30T14:03:15;8.53;;;7.73;;
8488;SDS011;4281;45.772;12.852;2024-01-30T14:05:43;7.67;;;6.87;;
8488;SDS011;4281;45.772;12.852;2024-01-30T14:08:11;7.53;;;6.83;;
8488;SDS011;4281;45.772;12.852;2024-01-30T14:10:39;8.13;;;6.77;;
8488;SDS011;4281;45.772;12.852;2024-01-30T14:13:08;6.60;;;5.63;;
8488;SDS011;4281;45.772;12.852;2024-01-30T14:15:37;6.37;;;5.77;;
8488;SDS011;4281;45.772;12.852;2024-01-30T14:18:06;6.17;;;5.57;;
8488;SDS011;4281;45.772;12.852;2024-01-30T14:20:35;5.80;;;5.20;;
8488;SDS011;4281;45.772;12.852;2024-01-30T14:23:03;6.80;;;5.93;;
8488;SDS011;4281;45.772;12.852;2024-01-30T14:25:31;6.20;;;5.60;;
8488;SDS011;4281;45.772;12.852;2024-01-30T14:28:00;7.27;;;6.30;;
8488;SDS011;4281;45.772;12.852;2024-01-30T14:30:30;6.53;;;5.83;;
8488;SDS011;4281;45.772;12.852;2024-01-30T14:32:58;7.97;;;6.00;;
8488;SDS011;4281;45.772;12.852;2024-01-30T14:35:27;6.77;;;6.10;;
8488;SDS011;4281;45.772;12.852;2024-01-30T14:37:56;6.90;;;5.83;;
8488;SDS011;4281;45.772;12.852;2024-01-30T14:40:24;6.83;;;6.13;;
8488;SDS011;4281;45.772;12.852;2024-01-30T14:42:51;7.60;;;6.33;;
8488;SDS011;4281;45.772;12.852;2024-01-30T14:45:21;8.70;;;7.80;;
8488;SDS011;4281;45.772;12.852;2024-01-30T14:47:50;8.23;;;7.40;;
8488;SDS011;4281;45.772;12.852;2024-01-30T14:50:19;8.93;;;7.80;;
8488;SDS011;4281;45.772;12.852;2024-01-30T14:52:49;8.17;;;7.33;;
8488;SDS011;4281;45.772;12.852;2024-01-30T14:55:17;8.47;;;7.57;;
8488;SDS011;4281;45.772;12.852;2024-01-30T14:57:45;8.73;;;7.37;;